Time;durP1;ratioP1;P1;durP2;ratioP2;P2;SDS_P1;SDS_P2;PMS_P1;PMS_P2;Temp;Humidity;BMP_temperature;BMP_pressure;BME280_temperature;BME280_humidity;BME280_pressure;Samples;Min_cycle;Max_cycle;Signal;HPM_P1;HPM_P2
2022/10/28 00:00:01;;;;;;;8.20;3.28;;;14.60;99.90;;;;;;5014344;28;20484;-75
2022/10/28 00:02:27;;;;;;;10.45;4.07;;;14.60;99.90;;;;;;5014701;28;20041;-75
2022/10/28 00:04:52;;;;;;;13.48;4.05;;;14.50;99.90;;;;;;5014311;28;20034;-75
2022/10/28 00:07:18;;;;;;;12.05;3.58;;;14.50;99.90;;;;;;4996577;28;20496;-75
2022/10/28 00:09:43;;;;;;;7.55;3.15;;;14.50;99.90;;;;;;5014199;28;20021;-75
2022/10/28 00:12:09;;;;;;;13.13;3.67;;;14.40;99.90;;;;;;5014464;28;20033;-75
2022/10/28 00:14:35;;;;;;;9.50;3.20;;;14.40;99.90;;;;;;5014125;28;20026;-75
2022/10/28 00:17:00;;;;;;;8.70;4.55;;;14.40;99.90;;;;;;4996583;28;20030;-75
2022/10/28 00:19:26;;;;;;;11.07;3.70;;;14.40;99.90;;;;;;5014068;28;20101;-75
2022/10/28 00:21:51;;;;;;;10.07;3.88;;;14.40;99.90;;;;;;5013930;28;20022;-75
2022/10/28 00:24:17;;;;;;;9.98;3.70;;;14.40;99.90;;;;;;4996400;28;20049;-75
2022/10/28 00:26:43;;;;;;;6.78;3.13;;;14.50;99.90;;;;;;5013259;28;20544;-74
2022/10/28 00:29:15;;;;;;;11.13;3.58;;;14.50;99.90;;;;;;4996434;28;20480;-75
2022/10/28 00:31:42;;;;;;;11.70;2.95;;;14.40;99.90;;;;;;5014072;28;20035;-75
2022/10/28 00:34:11;;;;;;;16.50;3.42;;;14.40;99.90;;;;;;5013667;28;20084;-74
2022/10/28 00:36:39;;;;;;;9.38;3.63;;;14.40;99.90;;;;;;5013738;28;20113;-75
2022/10/28 00:39:12;;;;;;;14.25;3.72;;;14.40;99.90;;;;;;4996103;28;20018;-74
2022/10/28 00:41:39;;;;;;;9.57;3.17;;;14.40;99.90;;;;;;4996096;28;20030;-75
2022/10/28 00:44:36;;;;;;;17.58;3.63;;;14.40;99.90;;;;;;5013571;28;20025;-75
2022/10/28 00:47:24;;;;;;;11.77;3.42;;;14.40;99.90;;;;;;5013662;28;20029;-74
2022/10/28 00:49:50;;;;;;;;;;;14.40;99.90;;;;;;4995577;28;20045;-75
2022/10/28 00:52:20;;;;;;;13.70;3.38;;;14.50;99.90;;;;;;5013636;28;20036;-75
2022/10/28 00:54:46;;;;;;;12.80;3.90;;;14.50;99.90;;;;;;5013607;28;20033;-75
2022/10/28 00:57:16;;;;;;;13.82;4.18;;;14.50;99.90;;;;;;4995862;28;20026;-75
2022/10/28 00:59:47;;;;;;;13.20;4.00;;;14.50;99.90;;;;;;5013517;28;20025;-75
2022/10/28 01:02:13;;;;;;;8.88;3.40;;;14.50;99.90;;;;;;4995597;28;20022;-75
2022/10/28 01:04:39;;;;;;;11.23;3.53;;;14.50;99.90;;;;;;5013301;28;20018;-75
2022/10/28 01:07:05;;;;;;;10.13;3.63;;;14.50;99.90;;;;;;5013915;28;20396;-75
2022/10/28 01:09:30;;;;;;;7.18;3.17;;;14.40;99.90;;;;;;5013339;28;20096;-75
2022/10/28 01:12:33;;;;;;;15.65;3.33;;;14.50;99.90;;;;;;5013252;28;20104;-75
2022/10/28 01:15:14;;;;;;;9.10;3.42;;;14.50;99.90;;;;;;5013193;28;20061;-75
2022/10/28 01:18:01;;;;;;;12.68;4.10;;;14.50;99.90;;;;;;5013176;28;20033;-75
2022/10/28 01:21:02;;;;;;;10.27;3.35;;;14.40;99.90;;;;;;5013331;28;20489;-75
2022/10/28 01:23:42;;;;;;;8.60;3.17;;;14.40;99.90;;;;;;5013012;28;20129;-75
2022/10/28 01:26:25;;;;;;;11.02;3.72;;;14.40;99.90;;;;;;4995637;28;20021;-75
2022/10/28 01:29:15;;;;;;;7.55;3.20;;;14.40;99.90;;;;;;5013442;28;20026;-75
2022/10/28 01:31:55;;;;;;;10.13;3.72;;;14.40;99.90;;;;;;5013099;28;20500;-74
2022/10/28 01:35:02;;;;;;;11.18;3.65;;;14.40;99.90;;;;;;4995583;28;20053;-75
2022/10/28 01:37:38;;;;;;;9.43;3.28;;;14.30;99.90;;;;;;4987101;28;20033;-75
2022/10/28 01:40:30;;;;;;;6.75;3.22;;;14.30;99.90;;;;;;5017475;28;20349;-74
2022/10/28 01:43:22;;;;;;;10.75;3.17;;;14.30;99.90;;;;;;5003645;28;20038;-75
2022/10/28 01:46:09;;;;;;;23.17;5.22;;;14.30;99.90;;;;;;5003911;28;20559;-75
2022/10/28 01:48:46;;;;;;;14.82;4.30;;;14.30;99.90;;;;;;5016942;28;20095;-75
2022/10/28 01:51:32;;;;;;;15.02;3.90;;;14.30;99.90;;;;;;5016894;28;20026;-75
2022/10/28 01:54:02;;;;;;;7.03;3.35;;;14.20;99.90;;;;;;4999136;28;20025;-75
2022/10/28 01:56:32;;;;;;;9.20;4.28;;;14.20;99.90;;;;;;5016638;28;20542;-75
2022/10/28 01:59:00;;;;;;;11.90;3.70;;;14.20;99.90;;;;;;5016636;28;20018;-75
2022/10/28 02:01:28;;;;;;;9.82;2.67;;;14.20;99.90;;;;;;5016605;28;20029;-75
2022/10/28 02:03:56;;;;;;;13.18;3.95;;;14.20;99.90;;;;;;5016776;28;20021;-75
2022/10/28 02:06:25;;;;;;;10.43;3.20;;;14.10;99.90;;;;;;5016970;28;20021;-75
2022/10/28 02:09:18;;;;;;;10.60;3.83;;;14.10;99.90;;;;;;5016450;28;20030;-75
2022/10/28 02:12:19;;;;;;;11.13;4.15;;;14.10;99.90;;;;;;5017065;28;20496;-75
2022/10/28 02:15:09;;;;;;;8.55;3.28;;;14.10;99.90;;;;;;4998901;28;20034;-75
2022/10/28 02:17:38;;;;;;;7.05;2.92;;;14.00;99.90;;;;;;5016324;28;20057;-75
2022/10/28 02:20:15;;;;;;;11.63;3.65;;;14.00;99.90;;;;;;5016605;28;20026;-75
2022/10/28 02:22:50;;;;;;;11.98;3.50;;;13.90;99.90;;;;;;4998362;28;20467;-75
2022/10/28 02:25:27;;;;;;;6.25;3.25;;;13.90;99.90;;;;;;5016139;28;20022;-74
2022/10/28 02:28:01;;;;;;;13.98;3.10;;;13.90;99.90;;;;;;4998757;28;20026;-74
2022/10/28 02:30:38;;;;;;;12.07;3.65;;;13.90;99.90;;;;;;5016079;28;20416;-73
2022/10/28 02:33:09;;;;;;;10.57;3.47;;;13.90;99.90;;;;;;5015767;28;20092;-74
2022/10/28 02:35:34;;;;;;;12.32;3.10;;;13.90;99.90;;;;;;5016366;28;20021;-73
2022/10/28 02:38:06;;;;;;;9.90;4.15;;;13.90;99.90;;;;;;5015802;28;20125;-74
2022/10/28 02:40:33;;;;;;;8.57;3.33;;;13.90;99.90;;;;;;5015787;28;20022;-74
2022/10/28 02:43:04;;;;;;;10.57;2.80;;;13.90;99.90;;;;;;5015602;28;20032;-73
2022/10/28 02:45:48;;;;;;;10.40;2.70;;;13.90;99.90;;;;;;4998013;28;20022;-74
2022/10/28 02:48:43;;;;;;;8.13;3.28;;;13.90;99.90;;;;;;5015563;28;20544;-74
2022/10/28 02:51:15;;;;;;;11.95;3.92;;;13.90;99.90;;;;;;5015575;28;20080;-73
2022/10/28 02:53:54;;;;;;;16.75;3.92;;;14.00;99.90;;;;;;5015487;28;20508;-75
2022/10/28 02:56:20;;;;;;;;;;;14.00;99.90;;;;;;5015912;28;20021;-75
2022/10/28 02:58:47;;;;;;;10.15;3.85;;;14.00;99.90;;;;;;5015327;28;19997;-74
2022/10/28 03:01:13;;;;;;;10.27;4.32;;;14.10;99.90;;;;;;5015293;28;20026;-75
2022/10/28 03:03:39;;;;;;;11.50;3.40;;;14.10;99.90;;;;;;5015188;28;20436;-75
2022/10/28 03:06:04;;;;;;;9.25;4.05;;;14.10;99.90;;;;;;5015775;28;20026;-75
2022/10/28 03:08:30;;;;;;;13.32;4.28;;;14.10;99.90;;;;;;5015714;28;20071;-75
2022/10/28 03:10:56;;;;;;;11.18;3.50;;;14.10;99.90;;;;;;5015308;28;20097;-75
2022/10/28 03:13:22;;;;;;;19.60;3.88;;;14.00;99.90;;;;;;4997525;28;20022;-74
2022/10/28 03:15:47;;;;;;;11.40;3.70;;;14.00;99.90;;;;;;4997656;28;20400;-74
2022/10/28 03:18:13;;;;;;;12.75;4.03;;;14.00;99.90;;;;;;5015139;28;20018;-75
2022/10/28 03:20:38;;;;;;;9.88;3.70;;;14.00;99.90;;;;;;5015072;28;20041;-75
2022/10/28 03:23:04;;;;;;;9.90;3.88;;;14.10;99.90;;;;;;5014716;28;20037;-75
2022/10/28 03:25:30;;;;;;;12.82;3.97;;;14.10;99.90;;;;;;5014943;28;20018;-75
2022/10/28 03:27:56;;;;;;;19.42;4.53;;;14.00;99.90;;;;;;5014853;28;20060;-75
2022/10/28 03:30:21;;;;;;;8.13;3.38;;;14.00;99.90;;;;;;5014892;28;20049;-75
2022/10/28 03:32:47;;;;;;;14.07;3.67;;;14.10;99.90;;;;;;4997119;28;20084;-75
2022/10/28 03:35:12;;;;;;;12.32;3.58;;;14.10;99.90;;;;;;5015358;28;20025;-74
2022/10/28 03:37:42;;;;;;;11.98;3.58;;;14.40;99.90;;;;;;5014536;28;20060;-75
2022/10/28 03:40:08;;;;;;;10.85;3.67;;;14.10;99.90;;;;;;5014473;28;20030;-75
2022/10/28 03:42:34;;;;;;;15.05;4.70;;;14.10;99.90;;;;;;5014354;28;20022;-75
2022/10/28 03:44:59;;;;;;;10.45;3.28;;;14.10;99.90;;;;;;5014953;28;20021;-74
2022/10/28 03:47:25;;;;;;;10.93;3.65;;;14.10;99.90;;;;;;4996934;28;20481;-75
2022/10/28 03:49:50;;;;;;;7.82;2.53;;;14.00;99.90;;;;;;5014470;28;20037;-75
2022/10/28 03:52:17;;;;;;;8.07;3.45;;;14.00;99.90;;;;;;5014237;28;20030;-75
2022/10/28 03:54:43;;;;;;;18.13;4.40;;;14.00;99.90;;;;;;4996616;28;20030;-75
2022/10/28 03:57:08;;;;;;;14.60;3.45;;;14.00;99.90;;;;;;4996631;28;20026;-74
2022/10/28 03:59:34;;;;;;;9.77;3.00;;;14.00;99.90;;;;;;4996754;28;20030;-75
2022/10/28 04:02:02;;;;;;;12.38;3.30;;;14.10;99.90;;;;;;5013655;28;20061;-75
2022/10/28 04:04:28;;;;;;;8.85;3.88;;;14.80;99.90;;;;;;4996429;28;20026;-75
2022/10/28 04:06:53;;;;;;;19.00;4.00;;;14.00;99.90;;;;;;5014101;28;20386;-75
2022/10/28 04:09:19;;;;;;;7.20;2.67;;;14.00;99.90;;;;;;4996616;28;20473;-75
2022/10/28 04:11:48;;;;;;;11.63;3.38;;;14.00;99.90;;;;;;4996527;28;20503;-75
2022/10/28 04:14:13;;;;;;;12.65;3.72;;;13.90;99.90;;;;;;4996457;28;20096;-75
2022/10/28 04:16:39;;;;;;;11.77;4.30;;;13.90;99.90;;;;;;4996386;28;20025;-75
2022/10/28 04:19:05;;;;;;;10.15;2.92;;;14.00;99.90;;;;;;5014572;28;20026;-74
2022/10/28 04:21:30;;;;;;;8.60;3.47;;;13.80;99.90;;;;;;5013864;28;20029;-75
2022/10/28 04:23:56;;;;;;;10.55;3.55;;;13.90;99.90;;;;;;4996209;28;20022;-75
2022/10/28 04:26:21;;;;;;;10.00;3.15;;;13.80;99.90;;;;;;4996222;28;20497;-75
2022/10/28 04:28:47;;;;;;;12.18;3.95;;;13.80;99.90;;;;;;5013766;28;20022;-75
2022/10/28 04:31:13;;;;;;;9.35;4.45;;;13.80;99.90;;;;;;5013654;28;20034;-74
2022/10/28 04:33:38;;;;;;;12.20;3.03;;;13.80;99.90;;;;;;4995936;28;20392;-75
2022/10/28 04:36:04;;;;;;;10.10;3.38;;;13.80;99.90;;;;;;4996803;28;20034;-75
2022/10/28 04:38:29;;;;;;;14.60;3.92;;;13.70;99.90;;;;;;5013567;28;20030;-74
2022/10/28 04:40:55;;;;;;;9.57;3.30;;;13.50;99.90;;;;;;4995904;28;20030;-75
2022/10/28 04:43:21;;;;;;;11.88;3.47;;;13.70;99.90;;;;;;5013553;28;20026;-75
2022/10/28 04:45:46;;;;;;;8.90;3.47;;;13.70;99.90;;;;;;5014044;28;20084;-75
2022/10/28 04:48:12;;;;;;;11.38;3.90;;;13.70;99.90;;;;;;4996273;28;20038;-75
2022/10/28 04:50:38;;;;;;;9.10;3.13;;;13.70;99.90;;;;;;5013385;28;20026;-75
2022/10/28 04:53:03;;;;;;;9.00;3.50;;;13.60;99.90;;;;;;5013520;28;20033;-74
2022/10/28 04:55:29;;;;;;;21.30;4.03;;;13.50;99.90;;;;;;5013941;28;20540;-75
2022/10/28 04:57:59;;;;;;;8.77;3.85;;;13.50;99.90;;;;;;5013314;28;20442;-74
2022/10/28 05:00:27;;;;;;;9.80;3.88;;;13.60;99.90;;;;;;5013527;28;20112;-75
2022/10/28 05:02:52;;;;;;;8.90;3.60;;;13.60;99.90;;;;;;5013403;28;20022;-75
2022/10/28 05:05:19;;;;;;;11.52;3.53;;;13.60;99.90;;;;;;5013400;28;20045;-74
2022/10/28 05:07:45;;;;;;;12.25;3.03;;;13.60;99.90;;;;;;5013265;28;20022;-74
2022/10/28 05:10:14;;;;;;;7.47;2.47;;;13.50;99.90;;;;;;5013257;28;20030;-75
2022/10/28 05:12:43;;;;;;;10.70;3.88;;;13.50;99.90;;;;;;5012963;28;20022;-75
2022/10/28 05:15:10;;;;;;;8.02;2.97;;;13.50;99.90;;;;;;5013241;28;20026;-74
2022/10/28 05:17:38;;;;;;;13.25;3.80;;;13.50;99.90;;;;;;4995648;28;20032;-74
2022/10/28 05:20:05;;;;;;;8.77;3.00;;;13.70;99.90;;;;;;5014022;28;20080;-74
2022/10/28 05:22:30;;;;;;;18.00;3.63;;;13.50;99.90;;;;;;5013063;28;20030;-75
2022/10/28 05:24:56;;;;;;;8.27;3.10;;;13.40;99.90;;;;;;5013616;28;20026;-75
2022/10/28 05:27:21;;;;;;;10.45;3.95;;;13.40;99.90;;;;;;5013228;28;20050;-74
2022/10/28 05:29:47;;;;;;;10.60;4.00;;;13.40;99.90;;;;;;5013114;28;20014;-75
2022/10/28 05:32:13;;;;;;;13.38;3.95;;;13.40;99.90;;;;;;4995485;28;20025;-75
2022/10/28 05:34:38;;;;;;;8.63;2.85;;;13.40;99.90;;;;;;5013234;28;20053;-75
2022/10/28 05:37:04;;;;;;;12.45;3.47;;;13.30;99.90;;;;;;5012964;28;20034;-75
2022/10/28 05:39:29;;;;;;;10.15;3.70;;;13.30;99.90;;;;;;4995460;28;20022;-75
2022/10/28 05:41:55;;;;;;;12.68;3.45;;;13.30;99.90;;;;;;5013007;28;20030;-74
2022/10/28 05:44:20;;;;;;;9.23;3.13;;;13.30;99.90;;;;;;5012956;28;20029;-75
2022/10/28 05:46:46;;;;;;;20.30;3.15;;;13.30;99.90;;;;;;4995505;28;20208;-75
2022/10/28 05:49:11;;;;;;;11.07;4.07;;;13.30;99.90;;;;;;4995296;28;20033;-75
2022/10/28 05:51:37;;;;;;;8.27;3.53;;;13.30;99.90;;;;;;5013000;28;20030;-75
2022/10/28 05:54:03;;;;;;;16.75;3.70;;;13.20;99.90;;;;;;5013038;28;20022;-75
2022/10/28 05:56:29;;;;;;;12.68;3.63;;;;;;;;;;4995215;28;20119;-75
2022/10/28 05:58:56;;;;;;;7.60;2.95;;;13.20;99.90;;;;;;4995159;28;20489;-75
2022/10/28 06:01:22;;;;;;;13.93;4.63;;;13.10;99.90;;;;;;4995214;28;20026;-75
2022/10/28 06:03:47;;;;;;;14.93;3.22;;;13.10;99.90;;;;;;5012903;28;20141;-75
2022/10/28 06:06:13;;;;;;;12.07;3.67;;;13.10;99.90;;;;;;5012796;28;20501;-75
2022/10/28 06:08:38;;;;;;;10.13;3.47;;;13.10;99.90;;;;;;5012806;28;20029;-75
2022/10/28 06:11:04;;;;;;;8.52;2.88;;;13.10;99.90;;;;;;4995310;28;20076;-75
2022/10/28 06:13:29;;;;;;;12.18;3.17;;;13.10;99.90;;;;;;5012922;28;20101;-74
2022/10/28 06:15:56;;;;;;;12.10;3.95;;;13.10;99.90;;;;;;5013274;28;20026;-75
2022/10/28 06:18:22;;;;;;;13.85;3.35;;;;;;;;;;5012745;28;20500;-74
2022/10/28 06:20:55;;;;;;;9.45;2.58;;;13.10;99.90;;;;;;5012701;28;20021;-74
2022/10/28 06:23:22;;;;;;;12.70;3.85;;;13.10;99.90;;;;;;5012456;28;20041;-74
2022/10/28 06:25:48;;;;;;;17.55;3.72;;;13.00;99.90;;;;;;5016133;28;20027;-75
2022/10/28 06:28:14;;;;;;;13.48;2.78;;;13.10;99.90;;;;;;5016289;28;20161;-75
2022/10/28 06:30:39;;;;;;;10.88;2.58;;;13.00;99.90;;;;;;5016231;28;20018;-75
2022/10/28 06:33:05;;;;;;;7.22;3.00;;;13.00;99.90;;;;;;5016160;28;20080;-74
2022/10/28 06:35:30;;;;;;;8.57;2.30;;;13.00;99.90;;;;;;5016202;28;20474;-75
2022/10/28 06:37:57;;;;;;;12.30;2.42;;;13.00;99.90;;;;;;4998584;28;20173;-75
2022/10/28 06:40:24;;;;;;;10.95;3.25;;;13.00;99.90;;;;;;5016113;28;20029;-74
2022/10/28 06:43:00;;;;;;;9.65;2.88;;;13.00;99.90;;;;;;5015938;28;20397;-75
2022/10/28 06:45:27;;;;;;;9.48;2.92;;;13.00;99.90;;;;;;4998474;28;20473;-75
2022/10/28 06:48:04;;;;;;;10.00;3.55;;;13.10;99.90;;;;;;5016020;28;20125;-74
2022/10/28 06:50:30;;;;;;;12.57;2.85;;;13.10;99.90;;;;;;5015941;28;20481;-75
2022/10/28 06:52:57;;;;;;;15.07;2.97;;;13.20;99.90;;;;;;4998199;28;20097;-75
2022/10/28 06:55:26;;;;;;;10.98;2.92;;;13.20;99.90;;;;;;5015861;28;20065;-74
2022/10/28 06:57:52;;;;;;;11.27;2.67;;;13.30;99.90;;;;;;4998213;28;20037;-74
2022/10/28 07:00:18;;;;;;;7.38;2.40;;;13.30;99.90;;;;;;5016195;28;20018;-75
2022/10/28 07:02:44;;;;;;;10.75;3.15;;;13.40;99.90;;;;;;4997953;28;20096;-74
2022/10/28 07:05:09;;;;;;;9.60;3.05;;;13.40;99.90;;;;;;5015540;28;20026;-75
2022/10/28 07:07:38;;;;;;;13.85;2.70;;;13.50;99.90;;;;;;5016129;28;20034;-75
2022/10/28 07:10:05;;;;;;;14.98;2.90;;;13.50;99.90;;;;;;5015533;28;20057;-74
2022/10/28 07:12:31;;;;;;;9.98;3.30;;;13.50;99.90;;;;;;5015457;28;20033;-74
2022/10/28 07:14:57;;;;;;;13.77;2.33;;;13.60;99.90;;;;;;5015378;28;20022;-74
2022/10/28 07:17:23;;;;;;;8.40;3.38;;;13.60;99.90;;;;;;4997784;28;20068;-73
2022/10/28 07:19:48;;;;;;;21.25;4.45;;;13.60;99.90;;;;;;5015309;28;20033;-74
2022/10/28 07:22:14;;;;;;;9.95;2.03;;;13.70;99.90;;;;;;4997497;28;20029;-74
2022/10/28 07:24:39;;;;;;;8.73;2.45;;;13.80;99.90;;;;;;5015021;28;20026;-74
2022/10/28 07:27:06;;;;;;;8.57;2.83;;;13.80;99.90;;;;;;4997408;28;20025;-74
2022/10/28 07:29:31;;;;;;;10.02;1.92;;;13.90;99.90;;;;;;5015124;28;20018;-74
2022/10/28 07:31:57;;;;;;;8.20;3.20;;;13.90;99.90;;;;;;4997494;28;20030;-74
2022/10/28 07:34:22;;;;;;;6.82;3.03;;;14.00;99.90;;;;;;5014888;28;20088;-74
2022/10/28 07:36:52;;;;;;;12.32;2.70;;;14.00;99.90;;;;;;5014839;28;20026;-74
2022/10/28 07:39:18;;;;;;;12.40;3.47;;;14.10;99.90;;;;;;5015370;28;20050;-74
2022/10/28 07:41:44;;;;;;;10.45;2.72;;;14.10;99.90;;;;;;4997040;28;20057;-74
2022/10/28 07:44:09;;;;;;;11.10;3.55;;;14.20;99.90;;;;;;5014660;28;20026;-74
2022/10/28 07:46:35;;;;;;;9.10;2.10;;;15.20;99.90;;;;;;5014753;28;20022;-74
2022/10/28 07:49:01;;;;;;;8.63;2.50;;;;;;;;;;5046166;22;20450;-76
2022/10/28 07:51:27;;;;;;;8.50;2.47;;;14.60;99.90;;;;;;5035660;28;20025;-77
2022/10/28 07:53:53;;;;;;;8.60;2.47;;;14.70;99.90;;;;;;5035386;28;20384;-77
2022/10/28 07:56:19;;;;;;;13.98;2.80;;;14.90;99.90;;;;;;5035087;28;20434;-77
2022/10/28 07:58:45;;;;;;;8.55;3.00;;;15.00;99.90;;;;;;5034414;28;20017;-76
2022/10/28 08:01:12;;;;;;;7.90;2.60;;;15.20;99.90;;;;;;5016535;28;20024;-76
2022/10/28 08:03:38;;;;;;;13.77;3.27;;;17.10;99.90;;;;;;5034149;28;20039;-76
2022/10/28 08:06:10;;;;;;;10.70;2.50;;;15.40;99.90;;;;;;5016380;28;20022;-76
2022/10/28 08:08:36;;;;;;;9.52;2.83;;;15.50;99.90;;;;;;5034150;28;20025;-76
2022/10/28 08:11:12;;;;;;;10.23;2.00;;;15.60;99.90;;;;;;5034275;28;20032;-76
2022/10/28 08:13:37;;;;;;;10.65;2.50;;;15.60;99.90;;;;;;5016432;28;20026;-76
2022/10/28 08:16:03;;;;;;;6.82;2.55;;;15.70;99.90;;;;;;5016418;28;20430;-76
2022/10/28 08:18:29;;;;;;;5.40;2.05;;;15.80;99.90;;;;;;5034050;28;20092;-76
2022/10/28 08:20:58;;;;;;;7.88;1.90;;;15.90;99.90;;;;;;5034024;28;20032;-76
2022/10/28 08:23:23;;;;;;;10.02;2.45;;;16.10;99.90;;;;;;5033853;28;20049;-76
2022/10/28 08:25:50;;;;;;;6.85;1.90;;;16.20;99.90;;;;;;5016232;28;20499;-76
2022/10/28 08:28:16;;;;;;;8.10;2.38;;;16.40;99.90;;;;;;5033881;28;20024;-76
2022/10/28 08:30:43;;;;;;;8.15;1.85;;;16.50;99.90;;;;;;5016234;28;20459;-77
2022/10/28 08:33:09;;;;;;;6.32;2.25;;;16.60;99.90;;;;;;5016188;28;20388;-76
2022/10/28 08:35:34;;;;;;;8.25;2.00;;;16.70;99.90;;;;;;5033808;28;20033;-76
2022/10/28 08:38:03;;;;;;;7.38;1.92;;;16.70;99.90;;;;;;5015569;28;20038;-76
2022/10/28 08:40:46;;;;;;;10.73;2.70;;;17.50;99.90;;;;;;5033779;28;20545;-76
2022/10/28 08:43:35;;;;;;;8.48;2.15;;;16.70;99.90;;;;;;5015857;28;20071;-76
2022/10/28 08:46:07;;;;;;;7.32;1.85;;;16.80;99.90;;;;;;5034194;28;20362;-77
2022/10/28 08:48:35;;;;;;;8.32;3.25;;;16.70;99.90;;;;;;5033227;28;20044;-76
2022/10/28 08:51:35;;;;;;;14.93;4.30;;;16.80;99.90;;;;;;5034160;28;20025;-76
2022/10/28 08:54:05;;;;;;;9.73;3.33;;;17.30;99.90;;;;;;5015784;28;20496;-76
2022/10/28 08:56:36;;;;;;;8.70;1.65;;;16.90;99.90;;;;;;5033762;28;20164;-76
2022/10/28 08:59:06;;;;;;;10.45;2.35;;;17.00;99.90;;;;;;5033381;28;20033;-76
2022/10/28 09:01:42;;;;;;;7.70;1.75;;;17.10;99.90;;;;;;5015978;28;20037;-76
2022/10/28 09:04:21;;;;;;;6.72;2.28;;;17.20;99.90;;;;;;5015654;28;20057;-76
2022/10/28 09:06:46;;;;;;;9.77;1.98;;;17.40;99.90;;;;;;5033390;28;20025;-76
2022/10/28 09:09:18;;;;;;;8.20;2.50;;;17.50;99.90;;;;;;5033192;28;20013;-76
2022/10/28 09:12:07;;;;;;;10.68;2.78;;;17.50;99.90;;;;;;5033334;28;20021;-76
2022/10/28 09:15:10;;;;;;;9.27;3.10;;;17.60;99.90;;;;;;5015759;28;20159;-76
2022/10/28 09:18:14;;;;;;;9.63;2.28;;;17.70;99.90;;;;;;5033218;28;20504;-74
2022/10/28 09:20:55;;;;;;;6.97;2.20;;;17.70;99.90;;;;;;5011689;28;20041;-74
2022/10/28 09:23:34;;;;;;;9.50;2.30;;;17.80;99.90;;;;;;5033207;28;20131;-74
2022/10/28 09:26:52;;;;;;;8.20;1.52;;;17.80;99.90;;;;;;5015486;28;20108;-74
2022/10/28 09:29:46;;;;;;;10.82;2.60;;;17.80;99.90;;;;;;4934118;29;20435;-75
2022/10/28 09:32:36;;;;;;;10.85;2.60;;;17.80;99.90;;;;;;5031408;28;20120;-74
2022/10/28 09:35:08;;;;;;;10.25;2.53;;;17.80;99.90;;;;;;5033603;28;20098;-74
2022/10/28 09:37:38;;;;;;;7.97;2.08;;;17.80;99.90;;;;;;5015447;28;20599;-74
2022/10/28 09:40:20;;;;;;;12.95;2.15;;;17.80;99.90;;;;;;5033281;28;20028;-75
2022/10/28 09:43:04;;;;;;;10.55;2.88;;;17.90;99.90;;;;;;5032891;28;20475;-74
2022/10/28 09:45:32;;;;;;;9.50;1.83;;;17.80;99.90;;;;;;5015401;28;20056;-74
2022/10/28 09:48:04;;;;;;;11.17;2.67;;;17.90;99.90;;;;;;5032905;28;20086;-74
2022/10/28 09:50:31;;;;;;;13.05;3.28;;;17.90;99.90;;;;;;5015172;28;20036;-74
2022/10/28 09:53:10;;;;;;;8.48;1.90;;;18.00;99.90;;;;;;5015187;28;20056;-75
2022/10/28 09:55:35;;;;;;;;;;;18.20;99.90;;;;;;5033373;28;20403;-75
2022/10/28 09:58:03;;;;;;;12.18;2.30;;;18.30;99.90;;;;;;5015991;28;19912;-74
2022/10/28 10:00:28;;;;;;;11.77;1.52;;;18.60;99.90;;;;;;5018961;28;20025;-75
2022/10/28 10:02:56;;;;;;;5.82;1.65;;;18.70;99.90;;;;;;5036448;28;20030;-74
2022/10/28 10:05:23;;;;;;;12.93;2.08;;;18.60;99.90;;;;;;5018844;28;20014;-76
2022/10/28 10:08:03;;;;;;;5.85;1.38;;;18.80;99.90;;;;;;5036519;28;20018;-75
2022/10/28 10:10:47;;;;;;;10.15;1.85;;;18.80;99.90;;;;;;5018795;28;20022;-76
2022/10/28 10:13:15;;;;;;;12.77;1.50;;;18.90;99.90;;;;;;5036867;28;20132;-76
2022/10/28 10:15:47;;;;;;;10.68;1.67;;;19.00;99.90;;;;;;5036406;28;20027;-76
2022/10/28 10:18:21;;;;;;;6.43;1.65;;;19.20;99.90;;;;;;5036322;28;20109;-76
2022/10/28 10:20:57;;;;;;;6.90;1.90;;;19.20;99.90;;;;;;5036841;28;20104;-76
2022/10/28 10:23:32;;;;;;;5.38;1.60;;;19.30;99.90;;;;;;5036043;28;20029;-76
2022/10/28 10:26:14;;;;;;;9.07;2.13;;;19.30;99.90;;;;;;5036422;28;20072;-74
2022/10/28 10:28:44;;;;;;;6.43;1.58;;;19.40;99.90;;;;;;5018565;28;20440;-74
2022/10/28 10:31:21;;;;;;;8.05;1.58;;;19.50;99.90;;;;;;5036158;28;20476;-73
2022/10/28 10:33:53;;;;;;;12.02;2.53;;;19.50;99.90;;;;;;5035899;28;20029;-74
2022/10/28 10:36:22;;;;;;;16.77;3.42;;;19.60;99.90;;;;;;5035894;28;20029;-73
2022/10/28 10:38:54;;;;;;;11.68;1.95;;;19.80;99.90;;;;;;5018317;28;20025;-74
2022/10/28 10:41:41;;;;;;;12.10;2.03;;;19.90;99.90;;;;;;5036754;28;20068;-74
2022/10/28 10:44:21;;;;;;;18.77;3.05;;;19.90;99.90;;;;;;5035857;28;20480;-73
2022/10/28 10:46:59;;;;;;;4.88;2.00;;;20.00;99.90;;;;;;5035930;28;20017;-73
2022/10/28 10:49:26;;;;;;;8.68;1.75;;;20.10;99.90;;;;;;5018071;28;20134;-74
2022/10/28 10:51:55;;;;;;;4.35;1.17;;;20.20;99.90;;;;;;5018122;28;20025;-74
2022/10/28 10:54:22;;;;;;;6.53;1.63;;;20.30;99.90;;;;;;5035821;28;20477;-74
2022/10/28 10:56:48;;;;;;;9.70;1.60;;;20.50;99.90;;;;;;5036138;28;20026;-74
2022/10/28 10:59:27;;;;;;;10.13;1.52;;;20.50;99.90;;;;;;5035581;28;20104;-74
2022/10/28 11:01:54;;;;;;;7.25;0.82;;;20.70;99.90;;;;;;5017721;28;20064;-74
2022/10/28 11:04:22;;;;;;;6.57;1.70;;;20.70;99.90;;;;;;5035488;28;20021;-74
2022/10/28 11:06:51;;;;;;;7.03;1.30;;;20.80;99.90;;;;;;5035943;28;20440;-74
2022/10/28 11:09:35;;;;;;;20.92;1.50;;;20.80;99.90;;;;;;5035707;28;20104;-74
2022/10/28 11:12:24;;;;;;;6.88;1.10;;;20.80;99.90;;;;;;5035335;28;20030;-72
2022/10/28 11:14:59;;;;;;;10.07;1.58;;;20.80;99.90;;;;;;5035323;28;20415;-74
2022/10/28 11:17:32;;;;;;;9.27;1.20;;;20.90;99.90;;;;;;5035257;28;20480;-75
2022/10/28 11:20:00;;;;;;;7.68;1.65;;;20.80;99.90;;;;;;5017389;28;20025;-73
2022/10/28 11:22:28;;;;;;;7.97;1.20;;;20.90;99.90;;;;;;5017338;28;20024;-73
2022/10/28 11:25:15;;;;;;;6.47;0.55;;;20.80;99.90;;;;;;5035156;28;20346;-73
2022/10/28 11:27:47;;;;;;;12.57;1.27;;;20.90;99.90;;;;;;5035528;28;20030;-73
2022/10/28 11:30:16;;;;;;;6.63;1.25;;;20.90;99.90;;;;;;5035447;28;20025;-73
2022/10/28 11:32:42;;;;;;;6.38;0.88;;;20.90;99.90;;;;;;5034770;28;20029;-73
2022/10/28 11:35:34;;;;;;;5.00;1.13;;;20.90;99.90;;;;;;5017074;28;20463;-73
2022/10/28 11:38:18;;;;;;;9.45;1.33;;;21.00;99.90;;;;;;5035472;28;20071;-73
2022/10/28 11:40:53;;;;;;;5.97;0.85;;;21.10;99.90;;;;;;5016935;28;20061;-73
2022/10/28 11:43:21;;;;;;;10.75;1.20;;;21.10;99.90;;;;;;5016852;28;20025;-73
2022/10/28 11:46:06;;;;;;;9.10;1.05;;;21.10;99.90;;;;;;5034656;28;20022;-73
2022/10/28 11:48:50;;;;;;;12.20;1.73;;;21.10;99.90;;;;;;5034651;28;20083;-72
2022/10/28 11:51:29;;;;;;;15.25;2.60;;;21.10;99.90;;;;;;5016882;28;20052;-73
2022/10/28 11:54:26;;;;;;;9.60;1.08;;;21.10;99.90;;;;;;5034576;28;20025;-73
2022/10/28 11:56:57;;;;;;;5.05;1.05;;;21.10;99.90;;;;;;5034516;28;20033;-73
2022/10/28 11:59:47;;;;;;;9.30;1.30;;;21.10;99.90;;;;;;5016687;28;20025;-73
2022/10/28 12:02:36;;;;;;;3.80;0.52;;;21.10;99.90;;;;;;5034210;28;20539;-73
2022/10/28 12:05:15;;;;;;;4.97;0.93;;;21.00;99.90;;;;;;5016472;28;20033;-74
2022/10/28 12:07:59;;;;;;;6.72;1.05;;;21.00;99.90;;;;;;5035021;28;20031;-73
2022/10/28 12:11:09;;;;;;;15.48;1.45;;;21.10;99.90;;;;;;5034761;28;20026;-74
2022/10/28 12:14:18;;;;;;;6.22;0.90;;;21.00;99.90;;;;;;4934836;29;20024;-73
2022/10/28 12:17:16;;;;;;;10.98;1.77;;;21.00;99.90;;;;;;5034162;28;20018;-73
2022/10/28 12:20:04;;;;;;;9.43;0.90;;;21.00;99.90;;;;;;5015695;28;20044;-73
2022/10/28 12:22:35;;;;;;;7.32;1.55;;;21.00;99.90;;;;;;5033021;28;20030;-73
2022/10/28 12:25:06;;;;;;;11.70;1.10;;;21.00;99.90;;;;;;5033959;28;20033;-76
2022/10/28 12:27:40;;;;;;;12.43;0.65;;;21.00;99.90;;;;;;5033837;28;20025;-76
2022/10/28 12:30:20;;;;;;;6.90;1.30;;;21.00;99.90;;;;;;5016110;28;20068;-75
2022/10/28 12:32:50;;;;;;;10.98;1.02;;;21.00;99.90;;;;;;5016062;28;20480;-76
2022/10/28 12:35:31;;;;;;;8.45;1.30;;;20.90;99.90;;;;;;5033821;28;20022;-75
2022/10/28 12:38:02;;;;;;;11.50;1.55;;;20.90;99.90;;;;;;5033991;28;20495;-76
2022/10/28 12:40:53;;;;;;;8.80;0.70;;;20.80;99.90;;;;;;5033713;28;20128;-76
2022/10/28 12:43:28;;;;;;;9.70;0.73;;;20.80;99.90;;;;;;5020301;28;20034;-76
2022/10/28 12:45:55;;;;;;;6.25;0.98;;;20.70;99.90;;;;;;5033657;28;20507;-77
2022/10/28 12:48:46;;;;;;;9.23;1.15;;;20.70;99.90;;;;;;5034083;28;20022;-76
2022/10/28 12:51:37;;;;;;;8.68;1.25;;;20.60;99.90;;;;;;5015884;28;20092;-76
2022/10/28 12:54:32;;;;;;;5.47;1.33;;;20.60;99.90;;;;;;5015953;28;20021;-77
2022/10/28 12:57:11;;;;;;;5.60;0.88;;;20.60;99.90;;;;;;5034188;28;20048;-77
2022/10/28 13:00:00;;;;;;;6.93;0.82;;;20.70;99.90;;;;;;5034066;28;20025;-77
2022/10/28 13:02:54;;;;;;;10.52;1.08;;;20.60;99.90;;;;;;5033231;28;20021;-77
2022/10/28 13:05:25;;;;;;;8.30;1.33;;;20.60;99.90;;;;;;5033325;28;20025;-76
2022/10/28 13:08:01;;;;;;;8.30;1.35;;;20.60;99.90;;;;;;5015707;28;20021;-77